Time;durP1;ratioP1;P1;durP2;ratioP2;P2;SDS_P1;SDS_P2;PMS_P1;PMS_P2;Temp;Humidity;BMP_temperature;BMP_pressure;BME280_temperature;BME280_humidity;BME280_pressure;Samples;Min_cycle;Max_cycle;Signal;HPM_P1;HPM_P2
2023/05/24 00:00:35;;;;;;;10.60;5.23;;;;;;;-143.84;85.40;44797.72;5111803;28;20439;-51
2023/05/24 00:03:03;;;;;;;6.90;5.33;;;;;;;-143.84;85.25;44820.56;5111661;28;21077;-51
2023/05/24 00:05:31;;;;;;;8.40;5.17;;;;;;;-143.84;85.06;44841.53;5111336;28;20795;-51
2023/05/24 00:07:59;;;;;;;6.10;5.40;;;;;;;-143.84;85.04;44854.84;5111813;28;20462;-52
2023/05/24 00:10:26;;;;;;;14.40;5.80;;;;;;;-143.84;84.24;44911.97;5111360;28;20466;-51
2023/05/24 00:12:53;;;;;;;8.23;6.20;;;;;;;-143.84;84.16;44900.53;5110454;28;21017;-50
2023/05/24 00:15:22;;;;;;;9.03;7.20;;;;;;;-143.84;84.47;44868.19;5111322;28;20432;-51
2023/05/24 00:17:49;;;;;;;9.97;7.50;;;;;;;-143.84;85.01;44877.69;5111338;28;20443;-51
2023/05/24 00:20:16;;;;;;;14.57;7.80;;;;;;;-143.84;85.60;44818.66;5111033;28;20431;-50
2023/05/24 00:22:43;;;;;;;8.13;7.30;;;;;;;-143.84;85.55;44790.13;5110872;28;20431;-51
2023/05/24 00:25:10;;;;;;;8.57;7.50;;;;;;;-143.84;85.92;44733.00;5108146;28;20432;-51
2023/05/24 00:27:37;;;;;;;7.33;6.73;;;;;;;-143.84;86.07;44761.56;5090729;28;20436;-51
2023/05/24 00:30:06;;;;;;;10.87;7.83;;;;;;;-143.84;85.81;44757.75;5091029;28;20482;-51
2023/05/24 00:32:34;;;;;;;11.33;7.10;;;;;;;-143.84;85.58;44774.88;5090636;28;20520;-51
2023/05/24 00:35:02;;;;;;;7.40;6.70;;;;;;;-143.84;85.68;44778.69;5090665;28;20505;-51
2023/05/24 00:37:29;;;;;;;8.00;7.20;;;;;;;-143.84;85.53;44776.78;5090859;28;20519;-51
2023/05/24 00:39:56;;;;;;;9.07;7.10;;;;;;;-143.84;85.51;44784.41;5090297;28;21088;-51
2023/05/24 00:42:23;;;;;;;9.03;7.67;;;;;;;-143.84;85.56;44786.31;5090444;28;20464;-51
2023/05/24 00:44:50;;;;;;;11.13;7.60;;;;;;;-143.84;85.66;44778.69;5090519;28;20490;-51
2023/05/24 00:47:18;;;;;;;8.07;7.30;;;;;;;-143.84;85.71;44763.47;5090586;28;20495;-51
2023/05/24 00:49:46;;;;;;;9.33;8.33;;;;;;;-143.84;85.68;44778.69;5090380;28;20437;-51
2023/05/24 00:52:14;;;;;;;8.70;7.10;;;;;;;-143.84;85.69;44769.16;5090204;28;20472;-51
2023/05/24 00:54:41;;;;;;;12.57;7.50;;;;;;;-143.84;85.48;44814.88;5090373;28;20993;-51
2023/05/24 00:57:08;;;;;;;13.40;7.40;;;;;;;-143.84;85.51;44797.72;5090586;28;21027;-51
2023/05/24 00:59:36;;;;;;;10.50;7.00;;;;;;;-143.84;85.29;44835.81;5090391;28;20498;-51
2023/05/24 01:02:03;;;;;;;9.00;7.10;;;;;;;-143.84;85.32;44807.25;5089302;28;20445;-51
2023/05/24 01:04:32;;;;;;;8.00;7.30;;;;;;;-143.84;85.22;44862.47;5089169;28;20470;-51
2023/05/24 01:07:18;;;;;;;10.10;7.60;;;;;;;-143.84;85.19;44826.28;5089757;28;20444;-51
2023/05/24 01:09:56;;;;;;;15.80;7.00;;;;;;;-143.84;85.51;44784.41;5089461;28;20455;-51
2023/05/24 01:12:33;;;;;;;8.43;7.10;;;;;;;-143.84;85.66;44750.13;5089450;28;20559;-51
2023/05/24 01:15:09;;;;;;;7.67;6.97;;;;;;;-143.84;85.84;44740.59;5090060;28;20494;-51
2023/05/24 01:17:47;;;;;;;7.53;6.80;;;;;;;-143.84;85.83;44734.91;5089952;28;20435;-51
2023/05/24 01:20:17;;;;;;;9.73;6.93;;;;;;;-143.84;85.66;44753.94;5089947;28;20490;-51
2023/05/24 01:23:03;;;;;;;7.80;6.73;;;;;;;-143.84;85.59;44790.13;5089874;28;20432;-51
2023/05/24 01:25:58;;;;;;;22.17;8.20;;;;;;;-143.84;85.42;44782.50;5089633;28;20510;-51
2023/05/24 01:28:28;;;;;;;12.80;7.90;;;;;;;-143.84;85.50;44824.38;5086808;28;20445;-51
2023/05/24 01:30:55;;;;;;;15.53;7.13;;;;;;;-143.84;85.26;44780.59;5089751;28;20443;-50
2023/05/24 01:33:23;;;;;;;11.53;7.50;;;;;;;-143.84;85.40;44820.56;5089692;28;20537;-51
2023/05/24 01:35:50;;;;;;;7.90;7.07;;;;;;;-143.84;85.23;44790.13;5089490;28;20470;-51
2023/05/24 01:38:17;;;;;;;13.87;8.37;;;;;;;-143.84;85.39;44839.63;5089608;28;20522;-51
2023/05/24 01:40:49;;;;;;;8.57;7.67;;;;;;;-143.84;85.17;44828.19;5089745;28;20861;-51
2023/05/24 01:43:22;;;;;;;7.63;6.73;;;;;;;-143.84;85.32;44828.19;5089658;28;20445;-50
2023/05/24 01:46:03;;;;;;;8.03;7.33;;;;;;;-143.84;85.35;44824.38;5089362;28;20470;-51
2023/05/24 01:48:47;;;;;;;9.93;7.00;;;;;;;-143.84;85.40;44824.38;5089462;28;20933;-51
2023/05/24 01:51:18;;;;;;;7.87;7.07;;;;;;;-143.84;85.27;44820.56;5089506;28;20525;-51
2023/05/24 01:53:49;;;;;;;8.47;7.67;;;;;;;-143.84;85.03;44830.09;5089550;28;20472;-51
2023/05/24 01:56:18;;;;;;;9.43;7.17;;;;;;;-143.84;84.86;44837.72;5090113;28;20442;-51
2023/05/24 01:58:47;;;;;;;9.87;7.70;;;;;;;-143.84;84.75;44866.28;5089568;28;21174;-51
2023/05/24 02:01:16;;;;;;;8.40;7.50;;;;;;;-143.84;84.56;44885.31;5089458;28;20433;-51
2023/05/24 02:03:43;;;;;;;11.20;7.97;;;;;;;-143.84;84.67;44891.03;5089898;28;20432;-52
2023/05/24 02:06:10;;;;;;;9.33;7.50;;;;;;;-143.84;84.78;44858.66;5089204;28;20566;-51
2023/05/24 02:08:37;;;;;;;8.70;7.80;;;;;;;-143.84;84.80;44871.97;5089623;28;20431;-52
2023/05/24 02:11:04;;;;;;;12.43;7.97;;;;;;;-143.84;84.66;44858.66;5089512;28;20481;-51
2023/05/24 02:13:32;;;;;;;7.20;6.50;;;;;;;-143.84;84.93;44860.56;5089145;28;20533;-51
2023/05/24 02:15:59;;;;;;;7.33;6.73;;;;;;;-143.84;85.11;44849.13;5089228;28;20995;-51
2023/05/24 02:18:33;;;;;;;8.97;7.00;;;;;;;-143.84;85.46;44809.16;5089302;28;20501;-51
2023/05/24 02:21:01;;;;;;;8.13;7.43;;;;;;;-143.84;85.69;44797.72;5106491;28;20964;-51
2023/05/24 02:23:28;;;;;;;7.40;6.80;;;;;;;-143.84;86.08;44740.59;5109679;28;20443;-52
2023/05/24 02:25:55;;;;;;;9.10;6.80;;;;;;;-143.84;86.38;44704.44;5109566;28;20439;-50
2023/05/24 02:28:22;;;;;;;7.47;6.73;;;;;;;-143.84;86.45;44723.47;5109758;28;20448;-51
2023/05/24 02:30:50;;;;;;;7.60;6.80;;;;;;;-143.84;86.71;44683.50;5109899;28;20932;-51
2023/05/24 02:33:17;;;;;;;7.63;6.93;;;;;;;-143.84;87.02;44578.78;5109484;28;20886;-51
2023/05/24 02:35:45;;;;;;;7.93;7.23;;;;;;;-143.84;87.49;44500.72;5109850;28;20993;-51
2023/05/24 02:38:12;;;;;;;12.50;7.70;;;;;;;-143.84;87.87;44466.44;5113150;28;20871;-52
2023/05/24 02:40:40;;;;;;;9.67;7.23;;;;;;;-143.84;87.95;44392.19;5113352;28;20431;-51
2023/05/24 02:43:08;;;;;;;8.93;7.60;;;;;;;-143.84;88.02;44344.59;5113030;28;20860;-51
2023/05/24 02:45:36;;;;;;;8.03;6.30;;;;;;;-143.84;88.04;44342.69;5113118;28;20948;-51
2023/05/24 02:48:03;;;;;;;8.57;7.10;;;;;;;-143.84;88.09;44321.75;5112787;28;21103;-51
2023/05/24 02:50:31;;;;;;;8.00;6.63;;;;;;;-143.84;88.25;44295.09;5113240;28;20982;-51
2023/05/24 02:52:59;;;;;;;9.70;7.80;;;;;;;-143.84;88.30;44255.13;5113054;28;20514;-51
2023/05/24 02:55:27;;;;;;;7.63;6.50;;;;;;;-143.84;88.39;44192.31;5112990;28;20450;-51
2023/05/24 02:57:55;;;;;;;8.77;6.63;;;;;;;-143.84;88.37;44222.75;5113039;28;20861;-51
2023/05/24 03:00:22;;;;;;;7.47;6.67;;;;;;;-143.84;88.46;44209.44;5112615;28;20455;-51
2023/05/24 03:02:51;;;;;;;7.20;6.50;;;;;;;-143.84;88.43;44224.66;5112934;28;20447;-51
2023/05/24 03:05:18;;;;;;;8.80;7.37;;;;;;;-143.84;88.18;44186.59;5112750;28;20439;-51
2023/05/24 03:07:45;;;;;;;10.63;6.20;;;;;;;-143.84;88.51;44186.59;5113028;28;20489;-51
2023/05/24 03:10:14;;;;;;;8.03;7.23;;;;;;;-143.84;88.48;44186.59;5112462;28;20831;-51
2023/05/24 03:12:41;;;;;;;8.60;6.50;;;;;;;-143.84;88.50;44178.97;5112479;28;20476;-51
2023/05/24 03:15:09;;;;;;;7.77;7.00;;;;;;;-143.84;88.45;44146.63;5112191;28;20435;-51
2023/05/24 03:17:36;;;;;;;7.13;6.07;;;;;;;-143.84;88.28;44196.13;5112682;28;20436;-51
2023/05/24 03:20:05;;;;;;;8.10;7.40;;;;;;;-143.84;88.28;44192.31;5112705;28;20921;-50
2023/05/24 03:22:32;;;;;;;9.77;7.60;;;;;;;-143.84;88.22;44207.53;5112237;28;20925;-51
2023/05/24 03:24:59;;;;;;;7.93;6.50;;;;;;;-143.84;88.23;44177.06;5112401;28;20440;-51
2023/05/24 03:27:27;;;;;;;10.63;7.33;;;;;;;-143.84;88.23;44220.84;5112301;28;20441;-51
2023/05/24 03:29:54;;;;;;;9.33;6.20;;;;;;;-143.84;88.27;44224.66;5112244;28;20508;-51
2023/05/24 03:32:21;;;;;;;7.03;5.43;;;;;;;-143.84;88.13;44239.91;5111886;28;20489;-51
2023/05/24 03:34:49;;;;;;;6.97;5.70;;;;;;;-143.84;88.13;44205.63;5112439;28;20439;-51
2023/05/24 03:37:16;;;;;;;8.53;7.53;;;;;;;-143.84;87.99;44239.91;5112223;28;20435;-51
2023/05/24 03:39:43;;;;;;;10.93;6.97;;;;;;;-143.84;87.90;44264.66;5111949;28;20874;-51
2023/05/24 03:42:10;;;;;;;12.90;6.70;;;;;;;-143.84;87.49;44342.69;5111965;28;20463;-51
2023/05/24 03:44:38;;;;;;;10.63;6.73;;;;;;;-143.84;87.59;44316.03;5111693;28;20440;-51
2023/05/24 03:47:06;;;;;;;9.03;7.30;;;;;;;-143.84;87.48;44342.69;5112091;28;20448;-51
2023/05/24 03:49:33;;;;;;;8.17;7.30;;;;;;;-143.84;87.40;44352.22;5111891;28;20869;-51
2023/05/24 03:52:00;;;;;;;11.83;7.07;;;;;;;-143.84;87.40;44371.25;5111878;28;20436;-51
2023/05/24 03:54:27;;;;;;;7.60;6.80;;;;;;;-143.84;87.20;44424.56;5111754;28;20475;-51
2023/05/24 03:56:54;;;;;;;7.10;6.47;;;;;;;-143.84;87.18;44405.53;5111479;28;20447;-51
2023/05/24 03:59:21;;;;;;;17.23;7.20;;;;;;;-143.84;87.16;44426.47;5111415;28;20477;-51
2023/05/24 04:01:50;;;;;;;13.63;7.47;;;;;;;-143.84;87.03;44464.53;5110987;28;20501;-52
2023/05/24 04:04:17;;;;;;;9.60;7.47;;;;;;;-143.84;87.00;44428.38;5111580;28;21029;-51
2023/05/24 04:06:44;;;;;;;7.47;6.50;;;;;;;-143.84;86.91;44483.56;5111533;28;20497;-51
2023/05/24 04:09:11;;;;;;;9.03;6.33;;;;;;;-143.84;86.50;44512.13;5111595;28;20439;-51
2023/05/24 04:11:38;;;;;;;8.30;6.90;;;;;;;-143.84;86.40;44561.63;5111495;28;20435;-51
2023/05/24 04:14:05;;;;;;;8.00;6.70;;;;;;;-143.84;86.40;44548.31;5111364;28;20555;-51
2023/05/24 04:16:33;;;;;;;8.63;7.60;;;;;;;-143.84;86.19;44574.97;5111163;28;20822;-51
2023/05/24 04:19:02;;;;;;;7.97;7.23;;;;;;;-143.84;85.94;44660.63;5111784;28;20450;-50
2023/05/24 04:21:31;;;;;;;9.20;7.20;;;;;;;-143.84;85.40;44740.59;5111400;28;20447;-51
2023/05/24 04:23:59;;;;;;;6.70;6.10;;;;;;;-143.84;85.35;44731.09;5104155;28;20927;-51
2023/05/24 04:26:26;;;;;;;7.07;6.23;;;;;;;-143.84;85.62;44672.06;5091067;28;20432;-50
2023/05/24 04:28:53;;;;;;;8.70;7.37;;;;;;;-143.84;85.35;44664.44;5090842;28;20448;-51
2023/05/24 04:31:21;;;;;;;7.70;6.97;;;;;;;-143.84;85.55;44670.16;5090479;28;21232;-51
2023/05/24 04:33:48;;;;;;;9.33;6.67;;;;;;;-143.84;85.54;44668.25;5090737;28;20932;-51
2023/05/24 04:36:18;;;;;;;11.50;7.53;;;;;;;-143.84;85.22;44713.94;5090526;28;20444;-52
2023/05/24 04:38:46;;;;;;;10.07;6.83;;;;;;;-143.84;85.25;44708.25;5090367;28;20575;-51
2023/05/24 04:41:13;;;;;;;8.93;7.30;;;;;;;-143.84;85.10;44750.13;5090447;28;20440;-54
2023/05/24 04:43:40;;;;;;;8.00;6.63;;;;;;;-143.84;85.20;44698.72;5104958;28;20492;-51
2023/05/24 04:46:07;;;;;;;12.00;6.63;;;;;;;;;;5110616;28;20514;-51
2023/05/24 04:48:34;;;;;;;7.53;6.23;;;;;;;-143.84;84.60;44746.31;5110666;28;20955;-51
2023/05/24 04:51:01;;;;;;;6.67;6.00;;;;;;;-143.84;83.83;44782.50;5110851;28;20805;-51
2023/05/24 04:53:31;;;;;;;9.07;6.33;;;;;;;-143.84;82.45;44911.97;5110525;28;20580;-51
2023/05/24 04:55:58;;;;;;;7.40;6.07;;;;;;;-143.84;81.20;44957.66;5110802;28;20494;-51
2023/05/24 04:58:25;;;;;;;12.43;6.57;;;;;;;-143.84;80.56;44982.41;5109942;28;20489;-51
2023/05/24 05:00:52;;;;;;;10.03;6.10;;;;;;;-143.84;80.13;44990.03;5110475;28;20441;-50
2023/05/24 05:03:20;;;;;;;6.40;5.20;;;;;;;-143.84;79.85;45016.69;5109994;28;20846;-50
2023/05/24 05:05:47;;;;;;;9.10;5.43;;;;;;;-143.84;78.42;45031.94;5110234;28;20471;-51
2023/05/24 05:08:14;;;;;;;8.60;5.60;;;;;;;-143.84;77.49;45064.31;5110293;28;20488;-52
2023/05/24 05:10:42;;;;;;;6.30;4.83;;;;;;;-143.84;77.24;45037.66;5110358;28;20506;-50
2023/05/24 05:13:09;;;;;;;10.83;5.07;;;;;;;-143.84;75.93;45052.88;5109538;28;20477;-51
2023/05/24 05:15:37;;;;;;;7.00;4.70;;;;;;;-143.84;74.98;45075.72;5109418;28;20432;-51
2023/05/24 05:18:04;;;;;;;9.03;4.50;;;;;;;-143.84;72.83;45049.06;5110307;28;20500;-51
2023/05/24 05:20:31;;;;;;;11.40;4.50;;;;;;;-143.84;71.77;45039.53;5108793;28;20788;-51
2023/05/24 05:22:58;;;;;;;6.13;4.50;;;;;;;-143.84;68.72;45104.28;5109617;28;20436;-51
2023/05/24 05:25:25;;;;;;;7.23;5.17;;;;;;;-143.84;68.94;45056.69;5109331;28;20447;-51
2023/05/24 05:27:54;;;;;;;6.83;4.13;;;;;;;-143.84;65.39;45068.13;5115545;28;20823;-51
2023/05/24 05:30:21;;;;;;;8.10;3.50;;;;;;;-143.84;61.38;45060.50;5109727;28;20436;-51
2023/05/24 05:32:48;;;;;;;7.33;3.20;;;;;;;-143.84;57.68;45068.13;5109869;28;20979;-51
2023/05/24 05:35:15;;;;;;;8.70;4.73;;;;;;;-143.84;55.92;45066.22;5109563;28;20447;-50
2023/05/24 05:37:42;;;;;;;5.00;3.90;;;;;;;-143.84;57.22;45056.69;5108816;28;20498;-51
2023/05/24 05:40:10;;;;;;;5.20;3.50;;;;;;;-143.84;53.27;45035.75;5108809;28;20538;-51
2023/05/24 05:42:37;;;;;;;5.20;3.70;;;;;;;-143.84;52.08;45037.66;5109311;28;20471;-51
2023/05/24 05:45:07;;;;;;;4.10;3.50;;;;;;;-143.84;52.20;45022.41;5109359;28;20848;-51
2023/05/24 05:47:34;;;;;;;11.23;6.90;;;;;;;-143.84;50.54;45031.94;5109448;28;20803;-50
2023/05/24 05:50:01;;;;;;;10.83;9.27;;;;;;;-143.84;50.45;45014.78;5109644;28;20447;-51
2023/05/24 05:52:28;;;;;;;16.10;10.50;;;;;;;-143.84;50.21;45018.59;5110039;28;20461;-51
2023/05/24 05:54:55;;;;;;;21.07;11.70;;;;;;;-143.84;50.75;45037.66;5109844;28;20990;-51
2023/05/24 05:57:23;;;;;;;16.83;11.10;;;;;;;-143.84;51.26;45026.22;5109843;28;20460;-51
2023/05/24 05:59:50;;;;;;;16.80;7.70;;;;;;;-143.84;49.79;45007.19;5109161;28;20517;-50
2023/05/24 06:02:21;;;;;;;16.50;11.70;;;;;;;-143.84;48.63;45007.19;5109440;28;20447;-50
2023/05/24 06:04:50;;;;;;;14.13;8.20;;;;;;;-143.84;48.33;45024.31;5109666;28;20450;-51
2023/05/24 06:07:17;;;;;;;8.83;7.60;;;;;;;-143.84;46.20;44997.66;5109694;28;20432;-50
2023/05/24 06:09:44;;;;;;;15.43;8.53;;;;;;;-143.84;46.39;44986.22;5109490;28;20436;-51
2023/05/24 06:12:11;;;;;;;18.40;12.00;;;;;;;-143.84;44.55;44990.03;5111584;28;20953;-51
2023/05/24 06:14:38;;;;;;;17.93;14.73;;;;;;;-143.84;43.87;45010.97;5113582;28;20510;-50
2023/05/24 06:17:05;;;;;;;19.53;14.57;;;;;;;-143.84;43.70;44995.75;5113575;28;20493;-50
2023/05/24 06:19:34;;;;;;;25.90;19.70;;;;;;;-143.84;44.53;45049.06;5111495;27;20444;-51
2023/05/24 06:22:01;;;;;;;21.73;16.23;;;;;;;-143.84;45.83;45012.88;5113205;27;20451;-51
2023/05/24 06:24:28;;;;;;;20.93;15.23;;;;;;;-143.84;45.23;45028.13;5113108;28;20443;-51
2023/05/24 06:26:56;;;;;;;21.23;14.00;;;;;;;-143.84;45.42;45030.03;5113586;28;20472;-51
2023/05/24 06:29:24;;;;;;;16.97;13.10;;;;;;;-143.84;45.66;45018.59;5113318;28;20515;-51
2023/05/24 06:31:51;;;;;;;13.23;6.10;;;;;;;-143.84;43.90;45005.28;5098669;28;20466;-51
2023/05/24 06:34:19;;;;;;;6.57;5.33;;;;;;;-143.84;44.85;45026.22;5092701;28;20536;-51
2023/05/24 06:36:50;;;;;;;8.47;6.93;;;;;;;-143.84;43.84;45005.28;5092621;28;21234;-51
2023/05/24 06:39:17;;;;;;;8.07;7.30;;;;;;;-143.84;44.87;44999.56;5092505;28;20492;-51
2023/05/24 06:41:45;;;;;;;12.30;7.80;;;;;;;-143.84;43.46;44997.66;5092605;28;20475;-51
2023/05/24 06:44:13;;;;;;;9.87;6.13;;;;;;;-143.84;43.21;45020.50;5092550;28;20502;-51
2023/05/24 06:46:40;;;;;;;7.83;5.50;;;;;;;-143.84;41.95;44991.94;5092459;28;20445;-51
2023/05/24 06:49:08;;;;;;;7.43;5.27;;;;;;;-143.84;40.94;44999.56;5092371;28;20433;-51
2023/05/24 06:51:35;;;;;;;7.70;5.73;;;;;;;-143.84;42.19;45024.31;5092414;28;20898;-51
2023/05/24 06:54:03;;;;;;;11.87;7.20;;;;;;;-143.84;42.30;45031.94;5091933;28;20541;-51
2023/05/24 06:56:31;;;;;;;13.20;6.23;;;;;;;-143.84;42.84;45018.59;5092420;28;20464;-52
2023/05/24 06:58:59;;;;;;;9.13;5.90;;;;;;;-143.84;43.27;45031.94;5092467;28;20435;-51
2023/05/24 07:01:26;;;;;;;7.30;5.53;;;;;;;-143.84;43.79;45014.78;5091952;28;20433;-50
2023/05/24 07:03:54;;;;;;;6.93;5.80;;;;;;;-143.84;43.94;45012.88;5092356;28;20926;-51
2023/05/24 07:06:21;;;;;;;7.07;6.37;;;;;;;-143.84;44.27;45022.41;5092102;28;20444;-51
2023/05/24 07:08:48;;;;;;;16.77;6.27;;;;;;;-143.84;43.02;45026.22;5091916;28;20993;-52
2023/05/24 07:11:17;;;;;;;4.87;4.37;;;;;;;-143.84;43.33;45014.78;5092133;28;20444;-51
2023/05/24 07:13:44;;;;;;;8.67;4.93;;;;;;;-143.84;44.63;45012.88;5092262;28;21349;-51
2023/05/24 07:16:11;;;;;;;18.67;12.50;;;;;;;-143.84;44.34;45007.19;5092235;28;21190;-51
2023/05/24 07:18:40;;;;;;;29.23;11.33;;;;;;;-143.84;44.66;44997.66;5092034;28;20447;-51
2023/05/24 07:21:07;;;;;;;12.20;10.90;;;;;;;-143.84;43.82;45010.97;5091781;28;20961;-51
2023/05/24 07:23:35;;;;;;;11.83;9.90;;;;;;;-143.84;43.14;44978.63;5091271;28;20437;-51
2023/05/24 07:26:03;;;;;;;12.97;10.77;;;;;;;-143.84;45.12;45012.88;5091749;28;20528;-51
2023/05/24 07:28:32;;;;;;;10.90;8.10;;;;;;;-143.84;43.25;45016.69;5091849;28;20543;-51
2023/05/24 07:30:59;;;;;;;19.00;15.70;;;;;;;-143.84;44.23;45007.19;5091445;28;20437;-51
2023/05/24 07:33:26;;;;;;;13.80;12.33;;;;;;;-143.84;44.70;45014.78;5091932;28;20428;-51
2023/05/24 07:35:53;;;;;;;14.70;12.73;;;;;;;-143.84;44.61;45035.75;5091935;28;20825;-51
2023/05/24 07:38:21;;;;;;;20.77;13.20;;;;;;;-143.84;45.17;45041.44;5091240;28;20462;-51
2023/05/24 07:40:48;;;;;;;15.53;13.13;;;;;;;-143.84;45.99;45062.41;5091727;28;20442;-50
2023/05/24 07:43:15;;;;;;;23.20;14.03;;;;;;;-143.84;46.22;45054.78;5091731;28;20544;-51
2023/05/24 07:45:44;;;;;;;20.87;16.70;;;;;;;-143.84;48.14;45049.06;5091357;28;20500;-51
2023/05/24 07:48:11;;;;;;;20.73;17.20;;;;;;;-143.84;50.10;45037.66;5091351;28;20510;-51
2023/05/24 07:50:38;;;;;;;28.13;17.40;;;;;;;-143.84;51.84;45012.88;5091593;28;20480;-51
2023/05/24 07:53:06;;;;;;;25.27;17.13;;;;;;;-143.84;51.21;45035.75;5091436;28;20919;-50
2023/05/24 07:55:33;;;;;;;20.67;17.83;;;;;;;-143.84;51.00;45016.69;5091051;28;20512;-50
2023/05/24 07:58:00;;;;;;;22.20;17.83;;;;;;;-143.84;52.58;45039.53;5090948;28;20443;-50
2023/05/24 08:00:28;;;;;;;20.40;16.97;;;;;;;-143.84;52.82;45014.78;5090886;28;20501;-50
2023/05/24 08:02:57;;;;;;;24.73;19.20;;;;;;;-143.84;54.87;45030.03;5091099;28;20450;-51
2023/05/24 08:05:24;;;;;;;21.13;15.50;;;;;;;-143.84;53.26;45043.34;5091322;28;20439;-50
2023/05/24 08:07:52;;;;;;;21.33;17.13;;;;;;;-143.84;51.67;45022.41;5090868;28;20936;-51
2023/05/24 08:10:19;;;;;;;22.90;16.73;;;;;;;-143.84;49.02;45007.19;5091064;28;20873;-50
2023/05/24 08:12:48;;;;;;;21.27;17.17;;;;;;;-143.84;51.36;45039.53;5090799;28;21103;-51
2023/05/24 08:15:15;;;;;;;33.17;22.07;;;;;;;-143.84;47.71;45003.38;5090956;28;21067;-50
2023/05/24 08:17:43;;;;;;;21.13;15.60;;;;;;;-143.84;49.10;45033.84;5090854;28;20489;-51
2023/05/24 08:20:14;;;;;;;19.60;14.20;;;;;;;-143.84;48.13;45031.94;5090741;28;20440;-50
2023/05/24 08:22:41;;;;;;;25.67;17.97;;;;;;;-143.84;46.57;45005.28;5091041;28;20432;-51
2023/05/24 08:25:09;;;;;;;76.47;49.87;;;;;;;-143.84;47.38;45009.09;5090779;28;20504;-50
2023/05/24 08:27:37;;;;;;;30.37;21.07;;;;;;;-143.84;47.49;45028.13;5090425;28;20504;-50
2023/05/24 08:30:04;;;;;;;62.90;32.70;;;;;;;-143.84;48.18;45037.66;5090483;28;20468;-51
2023/05/24 08:32:32;;;;;;;30.60;19.10;;;;;;;-143.84;47.61;45012.88;5090483;28;20444;-50
2023/05/24 08:34:59;;;;;;;15.97;13.07;;;;;;;-143.84;46.29;45028.13;5089920;28;21163;-51
2023/05/24 08:37:28;;;;;;;12.97;10.77;;;;;;;-143.84;47.10;45016.69;5090260;28;20468;-51
2023/05/24 08:39:56;;;;;;;39.30;30.07;;;;;;;-143.84;47.03;45024.31;5089858;28;20498;-50
2023/05/24 08:42:25;;;;;;;43.67;24.17;;;;;;;-143.84;49.59;45031.94;5090341;28;20508;-50
2023/05/24 08:44:58;;;;;;;51.63;28.87;;;;;;;-143.84;52.43;45054.78;5090580;28;20941;-50
2023/05/24 08:47:26;;;;;;;117.53;64.60;;;;;;;-143.84;52.38;45018.59;5090238;28;20516;-49
2023/05/24 08:49:54;;;;;;;42.60;29.03;;;;;;;-143.84;52.16;45041.44;5089929;28;20446;-50
2023/05/24 08:52:22;;;;;;;29.07;21.00;;;;;;;-143.84;50.64;45037.66;5090228;28;20500;-50
2023/05/24 08:54:52;;;;;;;116.07;63.87;;;;;;;-143.84;51.18;45020.50;5090495;28;20560;-51
2023/05/24 08:57:21;;;;;;;21.53;15.70;;;;;;;-143.84;50.59;45030.03;5090376;28;20550;-50
2023/05/24 08:59:49;;;;;;;29.33;17.93;;;;;;;-143.84;52.78;45030.03;5090642;28;20964;-50
2023/05/24 09:02:17;;;;;;;26.33;18.80;;;;;;;-143.84;53.94;45018.59;5110373;28;20933;-51
2023/05/24 09:04:46;;;;;;;20.50;16.00;;;;;;;-143.84;54.89;45045.25;5110135;28;20966;-50
2023/05/24 09:07:14;;;;;;;65.50;44.30;;;;;;;-143.84;52.78;45026.22;5110321;28;20480;-50
2023/05/24 09:09:44;;;;;;;15.73;10.60;;;;;;;-143.84;51.13;45064.31;5110307;28;20438;-50
2023/05/24 09:12:16;;;;;;;32.37;20.70;;;;;;;-143.84;51.30;45039.53;5109777;28;20434;-51
2023/05/24 09:14:46;;;;;;;31.80;19.90;;;;;;;-143.84;51.79;45028.13;5110486;28;20478;-50
2023/05/24 09:17:14;;;;;;;23.93;15.30;;;;;;;-143.84;51.25;45047.16;5110088;28;20441;-51
2023/05/24 09:19:45;;;;;;;18.60;15.10;;;;;;;-143.84;51.45;45014.78;5109844;28;20531;-50
2023/05/24 09:22:14;;;;;;;30.53;20.10;;;;;;;-143.84;53.01;45054.78;5109847;28;20443;-50
2023/05/24 09:24:41;;;;;;;21.53;15.43;;;;;;;-143.84;54.00;45030.03;5110146;28;20441;-50
2023/05/24 09:27:09;;;;;;;17.67;11.20;;;;;;;-143.84;53.64;45049.06;5110185;28;20501;-50
2023/05/24 09:29:37;;;;;;;17.13;12.57;;;;;;;-143.84;52.91;45041.44;5109817;28;20436;-50
2023/05/24 09:32:08;;;;;;;13.20;10.73;;;;;;;-143.84;52.36;45050.97;5109950;28;20446;-50
2023/05/24 09:34:39;;;;;;;13.17;8.43;;;;;;;-143.84;51.53;45052.88;5109983;28;20991;-50
2023/05/24 09:37:07;;;;;;;17.40;11.60;;;;;;;-143.84;52.43;45039.53;5109786;28;20441;-51
2023/05/24 09:39:35;;;;;;;15.07;11.47;;;;;;;-143.84;53.43;45049.06;5109343;28;20471;-50
2023/05/24 09:42:03;;;;;;;9.10;8.30;;;;;;;-143.84;52.65;45033.84;5110201;28;20447;-51
2023/05/24 09:44:30;;;;;;;25.70;15.63;;;;;;;-143.84;56.14;45054.78;5109669;28;20494;-51
2023/05/24 09:47:04;;;;;;;17.03;13.00;;;;;;;-143.84;54.60;45045.25;5114085;28;20453;-51
2023/05/24 09:49:31;;;;;;;17.43;13.90;;;;;;;-143.84;54.68;45047.16;5113630;28;20440;-50
2023/05/24 09:51:59;;;;;;;15.53;11.27;;;;;;;-143.84;53.88;45054.78;5114198;28;20442;-50
2023/05/24 09:54:26;;;;;;;17.30;12.23;;;;;;;-143.84;54.71;45037.66;5113728;28;20472;-51
2023/05/24 09:56:53;;;;;;;32.93;22.90;;;;;;;-143.84;55.02;45047.16;5109830;28;20540;-50
2023/05/24 09:59:20;;;;;;;22.07;16.97;;;;;;;-143.84;56.18;45014.78;5114122;28;20988;-50
2023/05/24 10:01:52;;;;;;;15.57;13.60;;;;;;;-143.84;57.79;45030.03;5113688;28;20535;-50
2023/05/24 10:04:33;;;;;;;14.20;10.87;;;;;;;-143.84;53.96;45018.59;5112470;28;20829;-53
2023/05/24 10:07:02;;;;;;;14.10;9.13;;;;;;;-143.84;53.21;45049.06;5113078;28;20960;-53
2023/05/24 10:09:32;;;;;;;11.37;8.60;;;;;;;-143.84;56.89;45028.13;5108452;28;20502;-53
2023/05/24 10:12:03;;;;;;;11.87;9.87;;;;;;;-143.84;52.72;45049.06;5112806;28;20447;-52
2023/05/24 10:14:34;;;;;;;13.63;9.60;;;;;;;-143.84;53.83;45050.97;5110772;28;20500;-52
2023/05/24 10:17:02;;;;;;;16.33;11.37;;;;;;;-143.84;54.48;45018.59;5112177;28;20441;-53
2023/05/24 10:19:31;;;;;;;11.87;8.73;;;;;;;-143.84;55.43;45043.34;5112636;28;20444;-53
2023/05/24 10:22:00;;;;;;;9.13;8.03;;;;;;;-143.84;54.88;45070.00;5130633;27;20455;-53
2023/05/24 10:24:33;;;;;;;7.30;6.60;;;;;;;-143.84;54.73;45066.22;5113804;27;20531;-53
2023/05/24 10:27:03;;;;;;;8.93;7.93;;;;;;;-143.84;55.54;45043.34;5112681;28;20446;-53
2023/05/24 10:29:44;;;;;;;9.83;8.50;;;;;;;-143.84;58.03;45037.66;5108013;28;20434;-53
2023/05/24 10:32:12;;;;;;;23.40;14.10;;;;;;;-143.84;54.78;45028.13;5092494;28;20442;-53
2023/05/24 10:34:41;;;;;;;12.33;9.23;;;;;;;-143.84;55.63;45073.81;5092204;28;20489;-53
2023/05/24 10:37:09;;;;;;;8.03;7.20;;;;;;;-143.84;60.67;45030.03;5092203;28;20966;-53
2023/05/24 10:39:36;;;;;;;9.20;7.93;;;;;;;-143.84;61.70;45047.16;5099424;28;20504;-53
2023/05/24 10:42:05;;;;;;;8.53;7.33;;;;;;;-143.84;61.86;45050.97;5112715;28;20495;-53
2023/05/24 10:44:32;;;;;;;6.33;5.73;;;;;;;-143.84;59.19;45049.06;5112430;28;21029;-53
2023/05/24 10:47:09;;;;;;;12.97;5.83;;;;;;;-143.84;58.80;45052.88;5112480;28;20505;-53
2023/05/24 10:49:38;;;;;;;7.43;6.00;;;;;;;-143.84;61.69;45049.06;5112515;28;20444;-53
2023/05/24 10:52:10;;;;;;;12.87;7.30;;;;;;;-143.84;63.39;45031.94;5112326;28;20535;-53
2023/05/24 10:54:37;;;;;;;6.50;4.93;;;;;;;-143.84;57.09;45054.78;5111867;28;20441;-53
2023/05/24 10:57:06;;;;;;;4.77;4.37;;;;;;;-143.84;56.48;45060.50;5111414;28;20942;-53
2023/05/24 10:59:37;;;;;;;6.37;4.80;;;;;;;-143.84;56.84;45037.66;5112254;28;20513;-53
2023/05/24 11:02:08;;;;;;;5.17;4.67;;;;;;;-143.84;55.51;45062.41;5112083;28;21242;-53
2023/05/24 11:04:42;;;;;;;5.53;5.03;;;;;;;-143.84;59.27;45035.75;5112008;28;20528;-53
2023/05/24 11:07:11;;;;;;;9.27;4.80;;;;;;;-143.84;57.05;45049.06;5112149;28;20438;-53
2023/05/24 11:09:44;;;;;;;6.60;4.20;;;;;;;-143.84;55.17;45043.34;5112074;28;20451;-53
2023/05/24 11:12:15;;;;;;;7.00;4.80;;;;;;;-143.84;54.54;45039.53;5111886;28;20462;-53
2023/05/24 11:14:48;;;;;;;6.33;3.60;;;;;;;-143.84;55.21;45033.84;5111872;28;20493;-53
2023/05/24 11:17:16;;;;;;;10.30;4.30;;;;;;;-143.84;51.47;45066.22;5111692;28;20443;-53